Time;durP1;ratioP1;P1;durP2;ratioP2;P2;SDS_P1;SDS_P2;PMS_P1;PMS_P2;Temp;Humidity;BMP_temperature;BMP_pressure;BME280_temperature;BME280_humidity;BME280_pressure;Samples;Min_cycle;Max_cycle;Signal;HPM_P1;HPM_P2
2024/04/10 00:00:26;;;;;;;9.70;6.20;;;;;;;16.61;65.52;100127.84;105966;1261;107747;-83
2024/04/10 00:03:34;;;;;;;8.00;5.80;;;;;;;16.53;65.93;100132.69;105974;1261;99700;-83
2024/04/10 00:06:19;;;;;;;8.60;5.80;;;;;;;16.46;66.21;100132.06;106015;1256;99678;-83
2024/04/10 00:09:05;;;;;;;8.30;6.20;;;;;;;16.42;66.35;100132.20;106022;1260;99131;-82
2024/04/10 00:11:50;;;;;;;7.70;5.70;;;;;;;16.39;66.34;100134.17;105943;1261;102686;-84
2024/04/10 00:14:38;;;;;;;14.10;6.30;;;;;;;16.37;66.71;100140.14;106010;1260;99864;-83
2024/04/10 00:17:28;;;;;;;9.70;5.90;;;;;;;16.35;67.04;100141.65;106034;1258;99444;-83
2024/04/10 00:20:13;;;;;;;9.40;6.30;;;;;;;16.30;67.09;100144.94;106088;1256;99333;-84
2024/04/10 00:23:04;;;;;;;7.80;6.10;;;;;;;16.24;67.33;100144.50;106003;1261;99422;-84
2024/04/10 00:26:00;;;;;;;7.60;5.80;;;;;;;16.22;67.42;100144.91;105803;1260;103630;-83
2024/04/10 00:28:45;;;;;;;9.10;6.80;;;;;;;16.21;67.49;100142.34;105976;1261;99328;-84
2024/04/10 00:31:31;;;;;;;10.30;6.70;;;;;;;16.19;67.52;100137.27;105954;1256;99369;-83
2024/04/10 00:34:17;;;;;;;10.40;6.00;;;;;;;16.14;67.57;100140.09;106000;1261;99324;-83
2024/04/10 00:37:03;;;;;;;7.60;5.90;;;;;;;16.11;67.55;100141.79;106129;1261;100606;-84
2024/04/10 00:39:49;;;;;;;12.50;6.60;;;;;;;16.05;67.94;100141.70;105985;1256;102703;-83
2024/04/10 00:42:34;;;;;;;11.10;6.30;;;;;;;16.04;67.98;100144.75;105822;1262;99310;-82
2024/04/10 00:45:20;;;;;;;9.80;5.80;;;;;;;16.01;68.04;100141.32;105943;1262;107257;-83
2024/04/10 00:48:05;;;;;;;11.80;6.50;;;;;;;15.97;68.10;100142.45;106071;1262;99297;-83
2024/04/10 00:50:53;;;;;;;12.80;6.70;;;;;;;15.94;68.47;100149.86;105799;1256;99352;-83
2024/04/10 00:53:41;;;;;;;11.90;6.80;;;;;;;15.89;68.78;100156.38;106334;1260;103354;-83
2024/04/10 00:56:27;;;;;;;10.40;6.80;;;;;;;15.85;68.64;100160.43;106157;1260;107737;-83
2024/04/10 00:59:13;;;;;;;10.10;6.60;;;;;;;15.79;68.91;100159.19;106048;1260;99223;-84
2024/04/10 01:01:59;;;;;;;11.90;6.80;;;;;;;15.75;69.08;100159.05;105997;1258;99371;-84
2024/04/10 01:04:45;;;;;;;9.80;7.70;;;;;;;15.72;69.13;100163.88;105942;1261;99201;-83
2024/04/10 01:07:30;;;;;;;8.30;6.40;;;;;;;15.68;69.55;100166.10;105915;1261;103966;-83
2024/04/10 01:10:16;;;;;;;9.30;6.00;;;;;;;15.64;69.55;100175.49;105964;1259;100323;-84
2024/04/10 01:13:02;;;;;;;10.70;6.50;;;;;;;15.61;69.69;100181.16;105945;1261;99349;-84
2024/04/10 01:15:47;;;;;;;11.20;6.90;;;;;;;15.57;69.91;100180.09;105828;1263;99382;-83
2024/04/10 01:18:33;;;;;;;9.40;6.10;;;;;;;15.54;70.00;100183.46;105961;1263;99257;-83
2024/04/10 01:21:18;;;;;;;11.10;7.40;;;;;;;15.50;70.26;100192.60;105972;1260;102711;-82
2024/04/10 01:24:04;;;;;;;13.30;7.00;;;;;;;15.47;70.40;100194.06;106008;1269;99309;-84
2024/04/10 01:26:50;;;;;;;13.20;8.20;;;;;;;15.46;70.40;100195.81;105933;1261;99263;-82
2024/04/10 01:29:36;;;;;;;9.90;6.60;;;;;;;15.44;70.51;100200.44;106003;1257;99245;-83
2024/04/10 01:32:21;;;;;;;12.70;7.30;;;;;;;15.43;70.58;100200.23;106120;1260;99770;-83
2024/04/10 01:35:07;;;;;;;9.70;6.90;;;;;;;15.42;70.67;100199.83;105981;1260;104065;-83
2024/04/10 01:37:53;;;;;;;9.80;6.40;;;;;;;15.39;70.82;100204.14;106079;1257;100051;-83
2024/04/10 01:40:39;;;;;;;10.80;6.90;;;;;;;15.35;71.02;100208.95;106069;1260;99436;-82
2024/04/10 01:43:25;;;;;;;11.70;7.70;;;;;;;15.31;71.22;100208.84;106066;1271;99304;-82
2024/04/10 01:46:10;;;;;;;12.50;7.30;;;;;;;15.27;71.35;100206.33;106271;1257;99288;-83
2024/04/10 01:48:55;;;;;;;8.20;6.50;;;;;;;15.23;71.75;100209.82;106024;1260;102707;-83
2024/04/10 01:51:41;;;;;;;9.40;7.30;;;;;;;15.17;72.10;100206.91;105936;1260;100144;-83
2024/04/10 01:54:26;;;;;;;12.70;7.80;;;;;;;15.11;72.44;100209.96;105998;1261;99252;-84
2024/04/10 01:57:12;;;;;;;12.30;7.10;;;;;;;15.09;72.79;100207.63;106003;1260;99520;-83
2024/04/10 01:59:57;;;;;;;9.40;7.40;;;;;;;15.05;72.77;100209.30;105980;1254;99414;-83
2024/04/10 02:02:43;;;;;;;11.60;7.40;;;;;;;15.00;72.99;100208.52;105840;1258;102703;-83
2024/04/10 02:05:28;;;;;;;9.70;7.20;;;;;;;14.96;73.12;100214.70;106156;1260;99308;-83
2024/04/10 02:08:14;;;;;;;11.50;7.10;;;;;;;14.91;73.19;100213.05;105825;1260;99488;-83
2024/04/10 02:11:19;;;;;;;15.50;7.60;;;;;;;14.88;73.28;100212.34;105895;1257;99334;-82
2024/04/10 02:14:05;;;;;;;12.10;6.80;;;;;;;14.83;73.83;100217.63;106151;1260;99310;-83
2024/04/10 02:16:50;;;;;;;9.80;7.10;;;;;;;14.79;73.69;100223.71;106158;1257;103323;-82
2024/04/10 02:19:36;;;;;;;13.10;7.90;;;;;;;14.76;73.91;100224.42;106038;1257;100414;-82
2024/04/10 02:22:22;;;;;;;9.70;6.60;;;;;;;14.70;74.02;100228.20;106043;1260;100600;-83
2024/04/10 02:25:08;;;;;;;11.30;7.60;;;;;;;14.67;74.13;100235.44;105884;1263;99285;-82
2024/04/10 02:27:53;;;;;;;10.70;7.50;;;;;;;14.63;74.29;100238.39;106140;1260;99778;-83
2024/04/10 02:30:39;;;;;;;14.50;6.80;;;;;;;14.59;74.44;100240.96;106284;1255;104149;-82
2024/04/10 02:33:24;;;;;;;10.90;7.10;;;;;;;14.56;74.49;100248.04;105866;1258;99425;-84
2024/04/10 02:36:10;;;;;;;11.00;8.10;;;;;;;14.54;74.74;100254.52;105904;1257;99421;-83
2024/04/10 02:38:55;;;;;;;15.40;9.20;;;;;;;14.52;74.98;100261.27;106141;1255;99844;-83
2024/04/10 02:41:40;;;;;;;14.10;8.50;;;;;;;14.49;75.26;100268.11;106051;1261;99268;-83
2024/04/10 02:44:26;;;;;;;13.50;9.10;;;;;;;14.48;75.90;100278.58;105951;1257;103453;-84
2024/04/10 02:47:11;;;;;;;19.60;9.80;;;;;;;14.47;76.49;100284.97;105883;1260;99364;-83
2024/04/10 02:49:56;;;;;;;15.50;10.50;;;;;;;14.47;77.40;100288.33;105743;1261;101020;-82
2024/04/10 02:52:42;;;;;;;15.30;9.50;;;;;;;14.48;77.81;100287.11;106110;1254;99335;-82
2024/04/10 02:55:28;;;;;;;12.70;9.60;;;;;;;14.50;78.28;100287.65;106111;1257;99966;-82
2024/04/10 02:58:13;;;;;;;16.50;9.80;;;;;;;14.50;78.41;100292.83;106155;1258;102718;-83
2024/04/10 03:00:59;;;;;;;15.90;10.80;;;;;;;14.49;79.03;100292.67;105795;1261;99432;-84
2024/04/10 03:03:45;;;;;;;16.70;11.00;;;;;;;14.45;79.48;100297.10;106218;1257;99252;-83
2024/04/10 03:06:30;;;;;;;14.10;10.30;;;;;;;14.41;80.35;100301.11;106088;1258;99341;-84
2024/04/10 03:09:16;;;;;;;16.40;10.70;;;;;;;14.37;80.97;100302.43;105955;1260;99406;-84
2024/04/10 03:12:03;;;;;;;18.80;10.00;;;;;;;14.32;81.90;100309.27;106093;1260;102709;-83
2024/04/10 03:14:48;;;;;;;16.80;10.70;;;;;;;14.29;82.61;100317.89;106016;1257;99561;-83
2024/04/10 03:17:34;;;;;;;14.90;10.50;;;;;;;14.30;83.17;100323.07;106049;1260;99457;-83
2024/04/10 03:20:23;;;;;;;15.90;11.40;;;;;;;14.31;83.84;100332.39;106048;1257;99329;-83
2024/04/10 03:23:09;;;;;;;20.10;10.70;;;;;;;14.31;84.79;100345.27;106243;1256;100457;-82
2024/04/10 03:26:05;;;;;;;13.90;10.60;;;;;;;14.32;85.16;100352.82;106011;1261;102710;-83
2024/04/10 03:28:51;;;;;;;21.10;11.20;;;;;;;14.33;85.73;100368.23;107830;1257;99817;-82
2024/04/10 03:31:36;;;;;;;17.10;10.80;;;;;;;14.34;86.39;100381.48;105721;1257;99317;-83
2024/04/10 03:34:21;;;;;;;24.00;12.10;;;;;;;14.35;87.00;100389.45;106086;1271;99488;-83
2024/04/10 03:37:07;;;;;;;18.30;12.20;;;;;;;14.35;88.20;100391.61;105892;1258;99224;-84
2024/04/10 03:39:52;;;;;;;18.60;12.50;;;;;;;14.36;88.97;100399.73;105997;1261;104014;-83
2024/04/10 03:42:47;;;;;;;19.60;12.30;;;;;;;14.38;90.26;100405.73;106148;1260;99854;-83
2024/04/10 03:45:33;;;;;;;24.30;13.20;;;;;;;14.37;91.02;100412.52;106036;1257;99241;-84
2024/04/10 03:48:19;;;;;;;20.90;12.30;;;;;;;14.36;91.95;100423.08;105920;1257;99248;-83
2024/04/10 03:51:05;;;;;;;24.00;14.20;;;;;;;14.37;92.59;100428.70;106150;1260;99822;-83
2024/04/10 03:53:51;;;;;;;22.60;14.60;;;;;;;14.39;92.76;100435.55;106057;1257;102823;-83
2024/04/10 03:56:37;;;;;;;24.60;15.70;;;;;;;14.41;93.31;100445.04;106061;1259;99865;-83
2024/04/10 03:59:25;;;;;;;22.50;14.60;;;;;;;14.41;93.83;100445.88;105778;1264;99244;-83
2024/04/10 04:02:10;;;;;;;24.90;15.50;;;;;;;14.41;94.13;100453.67;106092;1264;99401;-84
2024/04/10 04:04:56;;;;;;;27.40;15.90;;;;;;;14.40;94.36;100463.13;105859;1263;99817;-83
2024/04/10 04:07:42;;;;;;;26.90;15.30;;;;;;;14.39;94.83;100470.64;105886;1261;104214;-84
2024/04/10 04:10:27;;;;;;;23.80;15.80;;;;;;;14.39;95.43;100476.40;106128;1262;107689;-84
2024/04/10 04:13:13;;;;;;;21.80;16.40;;;;;;;14.36;96.01;100485.04;105840;1258;99783;-84
2024/04/10 04:16:01;;;;;;;25.30;16.80;;;;;;;14.36;96.28;100497.27;105961;1264;99260;-83
2024/04/10 04:18:47;;;;;;;26.70;18.00;;;;;;;14.35;96.58;100508.76;105979;1263;99878;-83
2024/04/10 04:21:32;;;;;;;23.20;16.50;;;;;;;14.34;96.80;100512.53;105931;1258;103755;-83
2024/04/10 04:24:18;;;;;;;26.90;19.20;;;;;;;14.33;97.01;100518.83;105946;1258;99316;-83
2024/04/10 04:27:05;;;;;;;25.60;19.10;;;;;;;14.34;97.10;100527.75;105724;1258;99293;-85
2024/04/10 04:29:51;;;;;;;29.10;19.90;;;;;;;14.34;97.38;100528.13;106403;1261;99346;-84
2024/04/10 04:32:36;;;;;;;25.20;20.10;;;;;;;14.32;97.80;100534.34;105731;1261;100023;-85
2024/04/10 04:35:22;;;;;;;24.10;19.30;;;;;;;14.32;97.73;100544.42;106198;1257;102687;-82
2024/04/10 04:38:09;;;;;;;31.90;20.40;;;;;;;14.33;97.75;100550.55;105808;1264;108588;-82
2024/04/10 04:40:56;;;;;;;29.40;20.90;;;;;;;14.34;98.03;100558.48;105784;1257;99899;-82
2024/04/10 04:43:42;;;;;;;26.30;18.90;;;;;;;14.35;98.25;100565.22;105795;1267;99303;-84
2024/04/10 04:46:27;;;;;;;30.90;20.80;;;;;;;14.34;98.10;100575.39;106009;1258;99832;-83
2024/04/10 04:49:13;;;;;;;26.00;20.50;;;;;;;14.35;98.47;100584.58;105782;1257;102732;-84
2024/04/10 04:51:59;;;;;;;28.90;19.50;;;;;;;14.36;98.65;100596.47;105841;1257;99318;-84
2024/04/10 04:54:44;;;;;;;27.30;20.30;;;;;;;14.36;98.78;100603.15;105927;1257;99263;-84
2024/04/10 04:57:30;;;;;;;25.90;18.30;;;;;;;14.36;98.67;100610.16;105990;1261;99399;-83
2024/04/10 05:00:19;;;;;;;25.10;18.60;;;;;;;14.36;98.66;100616.42;106082;1257;97620;-82
2024/04/10 05:03:06;;;;;;;27.00;18.80;;;;;;;14.37;98.93;100624.51;106228;1258;103461;-83
2024/04/10 05:05:51;;;;;;;27.60;18.40;;;;;;;14.36;98.72;100630.23;106017;1255;100611;-84
2024/04/10 05:08:37;;;;;;;30.30;18.70;;;;;;;14.36;98.92;100645.73;106264;1257;99430;-84
2024/04/10 05:11:22;;;;;;;25.30;17.60;;;;;;;14.35;98.84;100659.79;106132;1257;99311;-83
2024/04/10 05:14:08;;;;;;;23.40;17.80;;;;;;;14.36;98.77;100674.63;106134;1260;99767;-84
2024/04/10 05:16:54;;;;;;;19.30;15.30;;;;;;;14.35;98.61;100676.16;106084;1257;103975;-84
2024/04/10 05:19:39;;;;;;;22.60;15.30;;;;;;;14.36;98.42;100679.52;106242;1260;99249;-84
2024/04/10 05:22:25;;;;;;;21.10;15.40;;;;;;;14.36;98.48;100689.71;105884;1256;99380;-83
2024/04/10 05:25:11;;;;;;;19.50;13.70;;;;;;;14.37;98.07;100697.34;106074;1258;99369;-84
2024/04/10 05:27:56;;;;;;;17.10;11.80;;;;;;;14.37;97.29;100704.52;105973;1261;99427;-83
2024/04/10 05:30:42;;;;;;;15.60;10.70;;;;;;;14.38;96.96;100705.63;106263;1257;104609;-85
2024/04/10 05:33:28;;;;;;;14.00;10.00;;;;;;;14.37;96.45;100701.08;106028;1257;99399;-84
2024/04/10 05:36:14;;;;;;;15.10;8.80;;;;;;;14.38;96.01;100707.70;106044;1256;99261;-83
2024/04/10 05:39:00;;;;;;;11.30;6.70;;;;;;;14.39;95.57;100711.52;105853;1260;99374;-83
2024/04/10 05:41:46;;;;;;;9.70;6.70;;;;;;;14.39;95.10;100721.92;106158;1256;101064;-83
2024/04/10 05:44:31;;;;;;;8.30;6.40;;;;;;;14.41;94.84;100732.98;106018;1260;103419;-82
2024/04/10 05:47:17;;;;;;;10.50;5.30;;;;;;;14.43;94.02;100738.84;106055;1256;99758;-83
2024/04/10 05:50:03;;;;;;;7.40;4.60;;;;;;;14.44;93.11;100750.13;105977;1259;99604;-84
2024/04/10 05:52:48;;;;;;;9.30;4.10;;;;;;;14.44;92.40;100756.67;106063;1257;99498;-83
2024/04/10 05:55:34;;;;;;;9.50;4.30;;;;;;;14.47;92.04;100770.11;106236;1256;97723;-83
2024/04/10 05:58:30;;;;;;;4.60;4.00;;;;;;;14.47;91.74;100772.10;106179;1256;103272;-87
2024/04/10 06:01:16;;;;;;;4.60;3.70;;;;;;;14.51;92.06;100775.84;105908;1257;100402;-83
2024/04/10 06:04:02;;;;;;;6.00;4.70;;;;;;;14.58;92.18;100780.67;106096;1260;99262;-83
2024/04/10 06:06:47;;;;;;;6.40;4.60;;;;;;;14.61;91.73;100786.82;106052;1258;99319;-84
2024/04/10 06:09:33;;;;;;;13.40;5.00;;;;;;;14.60;91.15;100786.31;106071;1260;99761;-83
2024/04/10 06:12:19;;;;;;;5.70;3.60;;;;;;;14.58;90.90;100784.90;106073;1257;102688;-84
2024/04/10 06:15:05;;;;;;;11.10;4.10;;;;;;;14.57;90.06;100798.59;106162;1260;99316;-84
2024/04/10 06:17:50;;;;;;;6.10;3.60;;;;;;;14.57;89.76;100803.27;106148;1264;99194;-84
2024/04/10 06:20:36;;;;;;;3.70;2.50;;;;;;;14.59;88.95;100813.20;106114;1257;99265;-83
2024/04/10 06:23:22;;;;;;;2.80;2.20;;;;;;;14.64;88.74;100822.23;106044;1255;99300;-83
2024/04/10 06:26:08;;;;;;;3.90;2.30;;;;;;;14.64;87.83;100829.36;105952;1255;103684;-85
2024/04/10 06:28:54;;;;;;;2.90;2.00;;;;;;;14.65;87.00;100837.20;106200;1255;99275;-83
2024/04/10 06:31:40;;;;;;;4.50;2.20;;;;;;;14.62;85.54;100844.67;105896;1256;99312;-83
2024/04/10 06:34:26;;;;;;;3.00;1.80;;;;;;;14.56;84.80;100845.75;105929;1255;99438;-83
2024/04/10 06:37:15;;;;;;;4.10;1.90;;;;;;;14.53;84.65;100856.25;106163;1255;99886;-83
2024/04/10 06:40:00;;;;;;;4.10;1.60;;;;;;;14.51;83.90;100861.79;106040;1263;103996;-83
2024/04/10 06:42:46;;;;;;;5.30;1.70;;;;;;;14.49;83.31;100871.13;106338;1255;100165;-83
2024/04/10 06:45:31;;;;;;;4.40;1.80;;;;;;;14.50;82.95;100870.86;106129;1257;99435;-83
2024/04/10 06:48:16;;;;;;;4.80;1.70;;;;;;;14.53;82.42;100873.70;106144;1257;99334;-84
2024/04/10 06:51:04;;;;;;;3.60;2.00;;;;;;;14.59;82.76;100876.10;106154;1255;99317;-83
2024/04/10 06:53:50;;;;;;;2.60;1.50;;;;;;;14.68;82.11;100880.85;106314;1256;102698;-83
2024/04/10 06:56:36;;;;;;;2.60;1.60;;;;;;;14.76;81.26;100885.50;106197;1260;99969;-83
2024/04/10 06:59:22;;;;;;;6.80;1.80;;;;;;;14.78;79.76;100886.15;106159;1258;99306;-82
2024/04/10 07:02:07;;;;;;;4.40;1.60;;;;;;;14.78;79.30;100889.36;106058;1255;99347;-83
2024/04/10 07:04:52;;;;;;;4.80;1.70;;;;;;;14.83;79.25;100898.11;106183;1255;99425;-82
2024/04/10 07:07:39;;;;;;;2.40;1.50;;;;;;;14.88;78.63;100906.82;106284;1255;103934;-83
2024/04/10 07:10:25;;;;;;;3.30;1.80;;;;;;;14.90;77.66;100906.91;106016;1255;146214;-83
2024/04/10 07:13:11;;;;;;;6.90;1.50;;;;;;;14.94;77.44;100908.08;106059;1260;99334;-82
2024/04/10 07:16:00;;;;;;;6.30;2.00;;;;;;;15.00;76.88;100915.46;106231;1260;99308;-84
2024/04/10 07:18:46;;;;;;;3.80;1.60;;;;;;;15.03;75.74;100921.48;106080;1256;99337;-82
2024/04/10 07:21:33;;;;;;;3.20;1.10;;;;;;;15.05;75.09;100921.55;106257;1255;103288;-83
2024/04/10 07:24:19;;;;;;;3.60;1.40;;;;;;;15.09;74.78;100926.70;106158;1256;99331;-84
2024/04/10 07:27:04;;;;;;;7.20;1.50;;;;;;;15.09;74.29;100934.93;106019;1255;99417;-83
2024/04/10 07:29:51;;;;;;;2.60;1.20;;;;;;;15.12;74.70;100936.59;106297;1255;99325;-83
2024/04/10 07:32:36;;;;;;;4.00;1.40;;;;;;;15.17;74.22;100939.08;106119;1259;99759;-83
2024/04/10 07:35:22;;;;;;;6.00;2.10;;;;;;;15.18;73.06;100948.30;106126;1256;104040;-82
2024/04/10 07:38:07;;;;;;;9.80;2.10;;;;;;;15.15;73.19;100951.82;106155;1258;99354;-82
2024/04/10 07:40:53;;;;;;;4.70;1.90;;;;;;;15.18;72.46;100965.35;106251;1257;99472;-82
2024/04/10 07:43:40;;;;;;;5.10;1.80;;;;;;;15.17;71.82;100971.79;105843;1257;99420;-82
2024/04/10 07:46:26;;;;;;;7.20;2.00;;;;;;;15.16;71.38;100988.44;106061;1258;100907;-82
2024/04/10 07:49:11;;;;;;;7.20;1.90;;;;;;;15.15;71.09;100996.91;106022;1258;102691;-83
2024/04/10 07:51:57;;;;;;;3.90;2.00;;;;;;;15.17;71.29;101003.30;106050;1256;99388;-82
2024/04/10 07:54:42;;;;;;;6.60;2.00;;;;;;;15.19;70.75;101008.83;106232;1255;99259;-82
2024/04/10 07:57:28;;;;;;;7.70;1.70;;;;;;;15.22;70.32;101013.02;106082;1256;99370;-83
2024/04/10 08:00:14;;;;;;;3.90;1.70;;;;;;;15.30;70.96;101011.36;106114;1255;101445;-83
2024/04/10 08:03:00;;;;;;;5.00;1.70;;;;;;;15.40;69.99;101025.40;106138;1260;102698;-83
2024/04/10 08:05:50;;;;;;;5.00;1.50;;;;;;;15.45;68.99;101022.67;106032;1257;99395;-83
2024/04/10 08:08:42;;;;;;;5.70;1.50;;;;;;;15.46;68.35;101014.96;106023;1255;99503;-82
2024/04/10 08:11:27;;;;;;;4.00;1.40;;;;;;;15.48;68.37;101023.36;106039;1255;100575;-83
2024/04/10 08:14:13;;;;;;;4.80;1.70;;;;;;;15.49;67.93;101026.02;106143;1257;99799;-82
2024/04/10 08:16:59;;;;;;;6.60;2.10;;;;;;;15.52;67.79;101025.83;106068;1256;104071;-83
2024/04/10 08:19:46;;;;;;;3.50;1.60;;;;;;;15.56;67.49;101036.07;106167;1255;100637;-82
2024/04/10 08:22:31;;;;;;;11.20;1.90;;;;;;;15.59;66.69;101044.45;105953;1261;99998;-84
2024/04/10 08:25:17;;;;;;;4.60;1.80;;;;;;;15.54;66.56;101044.02;106099;1256;99326;-83
2024/04/10 08:28:03;;;;;;;8.70;1.40;;;;;;;15.59;66.91;101049.35;106208;1256;99321;-83
2024/04/10 08:30:49;;;;;;;3.20;1.20;;;;;;;15.62;66.26;101044.98;106031;1255;102828;-81
2024/04/10 08:33:34;;;;;;;3.70;1.50;;;;;;;15.65;66.23;101042.41;105847;1256;99397;-82
2024/04/10 08:36:21;;;;;;;6.00;1.40;;;;;;;15.74;66.42;101042.98;105977;1260;99374;-82
2024/04/10 08:39:07;;;;;;;3.60;1.90;;;;;;;15.77;65.13;101046.10;105983;1255;99325;-83
2024/04/10 08:41:55;;;;;;;5.40;1.40;;;;;;;15.73;65.03;101053.45;106228;1258;99862;-83
2024/04/10 08:44:40;;;;;;;4.70;1.60;;;;;;;15.74;65.17;101052.13;106316;1259;103933;-82
2024/04/10 08:47:28;;;;;;;5.50;1.60;;;;;;;15.81;65.49;101057.60;106245;1256;99232;-82
2024/04/10 08:50:14;;;;;;;5.00;1.40;;;;;;;15.93;66.37;101064.73;105934;1256;99453;-83
2024/04/10 08:53:02;;;;;;;3.10;1.60;;;;;;;16.04;65.74;101071.29;106282;1259;99296;-84
2024/04/10 08:55:48;;;;;;;6.30;1.80;;;;;;;16.08;65.07;101073.31;106186;1256;99753;-81
2024/04/10 08:58:33;;;;;;;9.40;2.00;;;;;;;16.07;64.98;101078.11;106068;1256;103382;-81
2024/04/10 09:01:33;;;;;;;6.10;1.40;;;;;;;16.07;64.72;101087.63;106192;1255;99712;-83
2024/04/10 09:04:22;;;;;;;5.80;1.50;;;;;;;16.08;63.48;101094.81;106113;1255;99321;-83
2024/04/10 09:07:08;;;;;;;4.20;1.20;;;;;;;16.10;63.17;101094.43;106201;1255;99223;-84
2024/04/10 09:09:54;;;;;;;5.90;1.70;;;;;;;16.15;63.22;101095.34;106125;1255;99838;-84
2024/04/10 09:12:41;;;;;;;5.70;1.50;;;;;;;16.23;62.95;101098.39;106133;1255;102852;-83
2024/04/10 09:15:26;;;;;;;4.70;1.70;;;;;;;16.32;63.07;101110.19;106175;1255;99856;-83
2024/04/10 09:18:11;;;;;;;7.10;2.20;;;;;;;16.35;62.33;101112.46;106222;1258;99260;-84
2024/04/10 09:21:11;;;;;;;5.50;2.60;;;;;;;16.33;62.19;101109.64;106194;1258;99850;-83
2024/04/10 09:24:00;;;;;;;4.60;1.10;;;;;;;16.34;62.79;101112.81;106396;1256;99314;-84
2024/04/10 09:26:48;;;;;;;5.10;1.20;;;;;;;16.39;62.95;101124.65;106066;1256;111318;-83
2024/04/10 09:29:33;;;;;;;3.50;1.40;;;;;;;16.37;62.07;101131.48;106039;1256;99882;-82
2024/04/10 09:32:20;;;;;;;2.70;1.20;;;;;;;16.38;62.96;101130.85;106122;1255;99403;-83
2024/04/10 09:35:07;;;;;;;2.60;1.20;;;;;;;16.46;63.45;101130.05;106193;1254;99258;-83
2024/04/10 09:38:01;;;;;;;4.00;1.50;;;;;;;16.54;63.90;101134.61;106098;1260;99767;-83
2024/04/10 09:40:58;;;;;;;6.20;1.40;;;;;;;16.60;63.32;101141.97;106128;1260;102657;-82
2024/04/10 09:43:54;;;;;;;9.40;1.70;;;;;;;16.56;62.74;101145.36;106125;1256;99304;-82
2024/04/10 09:46:45;;;;;;;3.50;1.70;;;;;;;16.58;62.76;101148.39;106378;1260;106705;-84
2024/04/10 09:49:55;;;;;;;7.80;1.90;;;;;;;16.57;62.99;101148.27;106310;1257;99386;-83
2024/04/10 09:52:42;;;;;;;5.10;1.40;;;;;;;16.68;63.72;101149.36;106276;1258;99267;-82
2024/04/10 09:55:32;;;;;;;5.30;1.90;;;;;;;16.78;63.84;101154.23;106255;1258;102701;-83
2024/04/10 09:58:18;;;;;;;10.40;1.90;;;;;;;16.84;63.47;101154.59;106076;1260;99303;-82
2024/04/10 10:01:04;;;;;;;8.60;1.70;;;;;;;16.86;63.34;101156.82;106252;1256;99318;-82
2024/04/10 10:03:57;;;;;;;7.10;1.90;;;;;;;16.84;63.04;101162.61;106231;1260;99713;-82
2024/04/10 10:06:42;;;;;;;7.20;1.60;;;;;;;16.84;62.62;101163.54;106290;1259;99412;-83
2024/04/10 10:09:28;;;;;;;4.80;1.60;;;;;;;16.81;61.27;101170.86;106096;1255;102696;-83
2024/04/10 10:12:25;;;;;;;3.40;1.60;;;;;;;16.72;61.11;101174.14;106362;1260;99325;-82
2024/04/10 10:15:11;;;;;;;3.80;1.40;;;;;;;16.72;62.32;101174.80;106281;1256;99285;-83
2024/04/10 10:17:57;;;;;;;5.30;1.70;;;;;;;16.78;61.55;101177.92;106325;1255;99445;-82
2024/04/10 10:20:42;;;;;;;3.70;1.50;;;;;;;16.77;61.32;101175.30;106206;1256;99401;-83
2024/04/10 10:23:28;;;;;;;3.00;1.50;;;;;;;16.83;62.36;101182.34;106685;1254;103584;-84
2024/04/10 10:26:15;;;;;;;4.50;1.60;;;;;;;16.92;62.06;101190.93;106325;1255;100445;-87
2024/04/10 10:29:05;;;;;;;4.00;1.70;;;;;;;16.96;61.78;101192.39;106486;1257;99303;-85
2024/04/10 10:32:01;;;;;;;5.10;1.60;;;;;;;17.02;62.09;101198.20;106339;1256;99387;-84
2024/04/10 10:34:47;;;;;;;3.90;1.40;;;;;;;17.05;61.13;101199.73;106247;1260;99762;-86
2024/04/10 10:37:33;;;;;;;7.20;1.80;;;;;;;17.03;61.97;101203.44;106441;1255;102703;-89
2024/04/10 10:40:19;;;;;;;3.60;1.90;;;;;;;17.03;61.67;101210.05;106194;1255;100502;-87
2024/04/10 10:43:07;;;;;;;3.10;1.60;;;;;;;17.01;61.43;101214.48;105992;1257;99969;-80
2024/04/10 10:45:52;;;;;;;5.60;2.10;;;;;;;16.96;60.87;101219.86;106275;1258;99304;-81
2024/04/10 10:48:38;;;;;;;5.30;1.50;;;;;;;16.87;60.71;101222.69;106503;1255;100591;-81
2024/04/10 10:51:24;;;;;;;5.20;1.60;;;;;;;16.80;60.42;101225.15;106493;1255;103775;-80
2024/04/10 10:54:09;;;;;;;6.30;1.90;;;;;;;16.70;59.86;101240.80;106178;1256;99199;-79
2024/04/10 10:57:02;;;;;;;4.80;1.70;;;;;;;16.63;59.81;101241.21;105516;1258;99309;-78
2024/04/10 10:59:47;;;;;;;8.30;2.00;;;;;;;16.62;60.16;101241.63;106923;1256;99766;-80
2024/04/10 11:02:32;;;;;;;8.60;1.70;;;;;;;16.65;60.15;101248.77;105701;1255;99903;-79
2024/04/10 11:05:18;;;;;;;3.70;1.50;;;;;;;16.66;60.11;101250.68;105683;1258;103936;-79
2024/04/10 11:08:04;;;;;;;5.50;2.10;;;;;;;16.69;60.28;101245.52;105599;1256;100334;-79
2024/04/10 11:10:51;;;;;;;7.70;1.80;;;;;;;16.77;60.71;101242.15;105361;1256;99339;-79
2024/04/10 11:13:37;;;;;;;5.90;1.90;;;;;;;16.86;61.00;101246.45;105658;1256;99404;-80
2024/04/10 11:16:33;;;;;;;4.20;2.00;;;;;;;16.93;60.86;101251.68;105669;1260;99825;-80
2024/04/10 11:19:18;;;;;;;7.90;1.70;;;;;;;17.00;60.89;101258.52;106192;1256;102692;-80
2024/04/10 11:22:16;;;;;;;7.10;1.50;;;;;;;17.06;60.82;101265.77;105663;1256;100337;-80
2024/04/10 11:25:01;;;;;;;3.90;1.80;;;;;;;17.08;60.37;101271.25;105592;1256;99368;-79
2024/04/10 11:27:46;;;;;;;5.70;2.00;;;;;;;17.11;60.42;101273.83;105670;1258;99233;-78
2024/04/10 11:30:32;;;;;;;3.80;1.60;;;;;;;17.12;60.27;101282.04;105659;1256;99847;-79
2024/04/10 11:33:17;;;;;;;4.70;1.70;;;;;;;17.11;60.15;101277.03;105717;1258;102889;-80
2024/04/10 11:36:03;;;;;;;9.40;1.90;;;;;;;17.11;60.26;101281.37;105646;1257;100383;-79
2024/04/10 11:38:49;;;;;;;6.20;1.90;;;;;;;17.14;60.25;101286.82;106262;1255;99814;-79
2024/04/10 11:41:34;;;;;;;6.20;1.90;;;;;;;17.16;60.17;101293.25;105737;1256;99304;-79
2024/04/10 11:44:25;;;;;;;8.90;2.40;;;;;;;17.11;59.55;101298.88;105568;1271;99229;-80
2024/04/10 11:47:10;;;;;;;5.30;1.70;;;;;;;16.99;59.46;101307.50;105891;1256;102790;-80
2024/04/10 11:49:56;;;;;;;4.40;2.30;;;;;;;16.90;59.51;101306.52;105652;1258;100816;-79
2024/04/10 11:52:45;;;;;;;3.00;1.60;;;;;;;16.83;59.66;101315.06;105685;1255;99440;-79
2024/04/10 11:55:30;;;;;;;5.40;1.80;;;;;;;16.79;59.73;101319.31;105604;1255;99309;-80
2024/04/10 11:58:16;;;;;;;3.90;2.30;;;;;;;16.73;59.33;101325.94;105664;1258;99706;-78
2024/04/10 12:01:03;;;;;;;7.50;2.10;;;;;;;16.64;59.21;101327.27;105874;1258;102684;-78
2024/04/10 12:03:49;;;;;;;4.60;2.20;;;;;;;16.54;59.22;101332.85;105641;1256;100351;-78
2024/04/10 12:06:34;;;;;;;4.20;1.70;;;;;;;16.45;59.07;101334.32;105826;1256;99330;-78
2024/04/10 12:09:19;;;;;;;6.20;2.00;;;;;;;16.39;59.80;101341.88;105710;1256;99354;-78
2024/04/10 12:12:06;;;;;;;5.90;2.10;;;;;;;16.36;60.20;101349.23;105644;1258;101121;-80
2024/04/10 12:14:51;;;;;;;5.00;2.60;;;;;;;16.23;60.63;101355.41;105643;1258;103445;-80
2024/04/10 12:17:37;;;;;;;7.70;1.90;;;;;;;16.16;61.15;101354.03;105783;1258;100372;-80
2024/04/10 12:20:23;;;;;;;4.40;2.40;;;;;;;16.12;61.55;101360.67;106191;1255;99309;-80
2024/04/10 12:23:09;;;;;;;4.40;2.30;;;;;;;16.08;61.58;101362.02;106365;1255;99331;-81
2024/04/10 12:25:54;;;;;;;3.70;2.30;;;;;;;16.07;61.82;101366.98;106302;1255;100081;-80
2024/04/10 12:28:40;;;;;;;6.40;2.50;;;;;;;16.05;62.08;101373.30;106395;1256;102730;-79
2024/04/10 12:31:26;;;;;;;16.60;2.90;;;;;;;15.99;61.74;101371.07;106379;1255;99304;-80
2024/04/10 12:34:12;;;;;;;6.10;2.40;;;;;;;15.89;62.07;101373.66;106319;1255;99328;-80
2024/04/10 12:40:01;;;;;;;2.90;2.30;;;;;;;15.84;62.50;101383.70;105705;1256;99759;-78